Time;durP1;ratioP1;P1;durP2;ratioP2;P2;SDS_P1;SDS_P2;PMS_P1;PMS_P2;Temp;Humidity;BMP_temperature;BMP_pressure;BME280_temperature;BME280_humidity;BME280_pressure;Samples;Min_cycle;Max_cycle;Signal;HPM_P1;HPM_P2
2022/04/25 00:01:15;;;;;;;6.03;3.45;;;;;;;-144.47;100.00;61586.06;6184901;23;20446;-79
2022/04/25 00:03:41;;;;;;;5.30;3.10;;;;;;;-144.47;100.00;61586.06;6157196;23;20064;-79
2022/04/25 00:06:07;;;;;;;7.97;3.60;;;;;;;-144.47;100.00;61586.06;6156334;23;20009;-77
2022/04/25 00:08:32;;;;;;;3.17;2.60;;;;;;;-144.47;100.00;61586.06;6182537;23;20013;-79
2022/04/25 00:10:58;;;;;;;3.80;3.00;;;;;;;-144.47;100.00;61586.06;6182763;23;20410;-78
2022/04/25 00:13:24;;;;;;;3.63;2.90;;;;;;;-144.47;100.00;61586.06;6182888;23;20059;-78
2022/04/25 00:15:50;;;;;;;4.38;2.97;;;;;;;-144.47;100.00;61586.06;6182341;23;20009;-78
2022/04/25 00:18:15;;;;;;;5.07;3.15;;;;;;;-144.47;100.00;61586.06;6182284;23;20040;-78
2022/04/25 00:20:41;;;;;;;4.55;3.20;;;;;;;-144.47;100.00;61586.06;6182022;23;20001;-79
2022/04/25 00:23:06;;;;;;;4.53;3.50;;;;;;;-144.47;100.00;61586.06;6182395;23;20147;-78
2022/04/25 00:25:34;;;;;;;4.97;3.42;;;;;;;-144.47;100.00;61586.06;6154769;23;20679;-77
2022/04/25 00:28:00;;;;;;;4.80;3.13;;;;;;;-144.47;100.00;61586.06;6181802;23;20009;-79
2022/04/25 00:30:28;;;;;;;5.18;3.17;;;;;;;-144.47;100.00;61586.06;6182725;23;20035;-79
2022/04/25 00:32:55;;;;;;;3.42;3.13;;;;;;;-144.47;100.00;61586.06;6180573;23;20013;-79
2022/04/25 00:35:20;;;;;;;3.65;3.20;;;;;;;-144.47;100.00;61586.06;6181262;23;20347;-79
2022/04/25 00:37:46;;;;;;;3.90;3.00;;;;;;;-144.47;100.00;61586.06;6181153;23;20019;-79
2022/04/25 00:40:11;;;;;;;3.20;2.90;;;;;;;-144.47;100.00;61586.06;6181378;23;20099;-79
2022/04/25 00:42:38;;;;;;;4.05;2.90;;;;;;;-144.47;100.00;61586.06;6180916;23;20439;-79
2022/04/25 00:45:04;;;;;;;4.13;2.78;;;;;;;-144.47;100.00;61586.06;6154800;23;20005;-80
2022/04/25 00:47:30;;;;;;;5.22;3.20;;;;;;;-144.47;100.00;61586.06;6180671;23;20442;-80
2022/04/25 00:49:56;;;;;;;3.40;2.92;;;;;;;-144.47;100.00;61586.06;6181134;23;20032;-79
2022/04/25 00:52:21;;;;;;;3.15;2.67;;;;;;;-144.47;100.00;61586.06;6181216;23;20012;-79
2022/04/25 00:54:47;;;;;;;2.85;2.60;;;;;;;-144.47;100.00;61586.06;6154426;23;20036;-79
2022/04/25 00:57:13;;;;;;;4.57;3.08;;;;;;;-144.47;100.00;61586.06;6180761;23;20012;-79
2022/04/25 00:59:39;;;;;;;3.63;2.85;;;;;;;-144.47;100.00;61586.06;6176983;23;20017;-80
2022/04/25 01:02:05;;;;;;;3.75;3.05;;;;;;;-144.47;100.00;61586.06;6178562;23;20009;-79
2022/04/25 01:04:31;;;;;;;4.00;3.00;;;;;;;-144.47;100.00;61586.06;6152709;23;20037;-79
2022/04/25 01:06:57;;;;;;;4.03;2.35;;;;;;;-144.47;100.00;61586.06;6181504;23;20374;-80
2022/04/25 01:09:24;;;;;;;3.25;2.92;;;;;;;-144.47;100.00;61586.06;6182439;23;20039;-77
2022/04/25 01:11:50;;;;;;;3.22;2.53;;;;;;;-144.47;100.00;61586.06;6181714;23;20035;-79
2022/04/25 01:14:21;;;;;;;3.25;3.05;;;;;;;-144.47;100.00;61586.06;6181167;23;20411;-77
2022/04/25 01:16:47;;;;;;;5.25;3.00;;;;;;;-144.47;100.00;61586.06;6181216;23;20088;-80
2022/04/25 01:19:14;;;;;;;3.28;2.85;;;;;;;-144.47;100.00;61586.06;6180684;23;20096;-79
2022/04/25 01:21:50;;;;;;;3.13;2.85;;;;;;;-144.47;100.00;61586.06;6181101;23;20036;-79
2022/04/25 01:27:17;;;;;;;2.85;2.65;;;;;;;-144.47;100.00;61586.06;6181447;23;20037;-80
2022/04/25 01:29:53;;;;;;;3.55;2.63;;;;;;;-144.47;100.00;61586.06;6180366;23;20107;-79
2022/04/25 01:32:23;;;;;;;2.92;2.63;;;;;;;-144.47;100.00;61586.06;6181216;23;20092;-78
2022/04/25 01:34:48;;;;;;;4.75;2.95;;;;;;;-144.47;100.00;61586.06;6181526;23;20092;-78
2022/04/25 01:37:16;;;;;;;4.10;3.05;;;;;;;-144.47;100.00;61586.06;6180982;23;20498;-78
2022/04/25 01:39:45;;;;;;;4.88;2.60;;;;;;;-144.47;100.00;61586.06;6180053;23;20067;-78
2022/04/25 01:42:12;;;;;;;3.42;3.10;;;;;;;-144.47;100.00;61586.06;6181673;23;20063;-79
2022/04/25 01:44:39;;;;;;;2.95;2.75;;;;;;;-144.47;100.00;61586.06;6181795;23;20013;-78
2022/04/25 01:47:06;;;;;;;5.80;3.00;;;;;;;-144.47;100.00;61586.06;6182174;23;20016;-78
2022/04/25 01:49:33;;;;;;;5.65;3.10;;;;;;;-144.47;100.00;61586.06;6181397;23;20009;-80
2022/04/25 01:52:07;;;;;;;4.10;2.60;;;;;;;-144.47;100.00;61586.06;6157840;23;20023;-79
2022/04/25 01:54:33;;;;;;;3.13;2.63;;;;;;;-144.47;100.00;61586.06;6161279;23;20013;-79
2022/04/25 01:57:00;;;;;;;4.18;2.97;;;;;;;-144.47;100.00;61586.06;6190197;23;20375;-79
2022/04/25 01:59:26;;;;;;;3.10;2.80;;;;;;;-144.47;100.00;61586.06;6197765;23;20013;-78
2022/04/25 02:01:53;;;;;;;5.10;3.10;;;;;;;-144.47;100.00;61586.06;6201749;23;20016;-78
2022/04/25 02:04:19;;;;;;;4.68;3.00;;;;;;;-144.47;100.00;61586.06;6182595;23;20009;-78
2022/04/25 02:06:45;;;;;;;6.30;3.58;;;;;;;-144.47;100.00;61586.06;6183467;23;20087;-77
2022/04/25 02:09:10;;;;;;;3.63;3.33;;;;;;;-144.47;100.00;61586.06;6183140;23;20442;-79
2022/04/25 02:11:36;;;;;;;4.70;3.20;;;;;;;-144.47;100.00;61586.06;6181160;23;20057;-79
2022/04/25 02:14:02;;;;;;;3.28;2.90;;;;;;;-144.47;100.00;61586.06;6181923;23;20493;-80
2022/04/25 02:16:28;;;;;;;4.75;3.25;;;;;;;-144.47;100.00;61586.06;6181203;23;20013;-79
2022/04/25 02:18:54;;;;;;;4.00;3.60;;;;;;;-144.47;100.00;61586.06;6180735;23;20020;-78
2022/04/25 02:21:20;;;;;;;4.50;3.45;;;;;;;-144.47;100.00;61586.06;6154764;23;20027;-79
2022/04/25 02:23:46;;;;;;;4.20;3.35;;;;;;;-144.47;100.00;61586.06;6154361;23;20287;-79
2022/04/25 02:26:12;;;;;;;4.78;3.30;;;;;;;-144.47;100.00;61586.06;6181171;23;20465;-78
2022/04/25 02:28:39;;;;;;;5.88;3.63;;;;;;;-144.47;100.00;61586.06;6181060;23;20092;-78
2022/04/25 02:31:06;;;;;;;5.38;3.35;;;;;;;-144.47;100.00;61586.06;6181316;23;20012;-78
2022/04/25 02:33:32;;;;;;;3.22;2.92;;;;;;;-144.47;100.00;61586.06;6180489;23;20016;-80
2022/04/25 02:35:59;;;;;;;4.55;3.15;;;;;;;-144.47;100.00;61586.06;6181091;23;20009;-78
2022/04/25 02:38:25;;;;;;;3.70;3.40;;;;;;;-144.47;100.00;61586.06;6181009;23;20055;-79
2022/04/25 02:41:04;;;;;;;3.63;3.33;;;;;;;-144.47;100.00;61586.06;6181990;23;20013;-78
2022/04/25 02:43:49;;;;;;;4.40;3.25;;;;;;;-144.47;100.00;61586.06;6187546;23;20013;-80
2022/04/25 02:46:16;;;;;;;4.40;3.85;;;;;;;-144.47;100.00;61586.06;6200995;23;20310;-78
2022/04/25 02:48:44;;;;;;;4.78;3.20;;;;;;;-144.47;100.00;61586.06;6167656;23;20387;-79
2022/04/25 02:51:10;;;;;;;3.50;3.22;;;;;;;-144.47;100.00;61586.06;6181673;23;20009;-79
2022/04/25 02:53:37;;;;;;;3.60;3.30;;;;;;;-144.47;100.00;61586.06;6183545;23;20427;-79
2022/04/25 02:56:03;;;;;;;4.15;3.78;;;;;;;-144.47;100.00;61586.06;6156630;23;20013;-80
2022/04/25 02:58:30;;;;;;;3.70;3.38;;;;;;;-144.47;100.00;61586.06;6181964;23;20036;-79
2022/04/25 03:00:57;;;;;;;4.35;3.13;;;;;;;-144.47;100.00;61586.06;6107644;23;20017;-79
2022/04/25 03:03:24;;;;;;;3.70;3.17;;;;;;;-144.47;100.00;61586.06;6182904;23;20463;-79
2022/04/25 03:05:50;;;;;;;5.85;3.53;;;;;;;-144.47;100.00;61586.06;6182352;23;20020;-78
2022/04/25 03:08:21;;;;;;;4.25;3.60;;;;;;;-144.47;100.00;61586.06;6183438;23;20155;-79
2022/04/25 03:10:47;;;;;;;;;;;;;;;-144.47;100.00;61586.06;6183404;23;20453;-80
2022/04/25 03:13:14;;;;;;;4.05;3.03;;;;;;;-144.47;100.00;61586.06;6157090;23;20286;-79
2022/04/25 03:15:41;;;;;;;4.50;3.17;;;;;;;-144.47;100.00;61586.06;6182903;23;20020;-79
2022/04/25 03:18:08;;;;;;;3.85;3.55;;;;;;;-144.47;100.00;61586.06;6183090;23;20059;-80
2022/04/25 03:20:34;;;;;;;3.80;3.40;;;;;;;-144.47;100.00;61586.06;6183110;23;20013;-79
2022/04/25 03:23:00;;;;;;;3.78;3.03;;;;;;;-144.47;100.00;61586.06;6183465;23;20023;-77
2022/04/25 03:25:26;;;;;;;5.57;3.08;;;;;;;-144.47;100.00;61586.06;6182868;23;20021;-79
2022/04/25 03:27:52;;;;;;;3.10;2.90;;;;;;;-144.47;100.00;61586.06;6185495;23;20044;-80
2022/04/25 03:30:18;;;;;;;5.05;3.35;;;;;;;-144.47;100.00;61586.06;6183218;23;20449;-79
2022/04/25 03:32:45;;;;;;;4.88;3.28;;;;;;;-144.47;100.00;61586.06;6182628;23;20338;-79
2022/04/25 03:35:14;;;;;;;4.78;3.65;;;;;;;-144.47;100.00;61586.06;6182960;23;20031;-79
2022/04/25 03:37:41;;;;;;;5.60;3.50;;;;;;;-144.47;100.00;61586.06;6181432;23;20132;-79
2022/04/25 03:40:08;;;;;;;5.72;3.30;;;;;;;-144.47;100.00;61586.06;6181776;23;20009;-80
2022/04/25 03:42:34;;;;;;;3.97;3.58;;;;;;;-144.47;100.00;61586.06;6181667;23;20096;-79
2022/04/25 03:45:00;;;;;;;3.88;3.30;;;;;;;-144.47;100.00;61586.06;6155472;23;20020;-79
2022/04/25 03:47:26;;;;;;;3.78;3.47;;;;;;;-144.47;100.00;61586.06;6181897;23;20088;-78
2022/04/25 03:49:52;;;;;;;3.67;3.38;;;;;;;-144.47;100.00;61586.06;6183612;23;20407;-79
2022/04/25 03:52:17;;;;;;;6.55;4.13;;;;;;;-144.47;100.00;61586.06;6157295;23;20024;-79
2022/04/25 03:57:27;;;;;;;4.03;3.72;;;;;;;-144.47;100.00;61586.06;6184976;23;20031;-79
2022/04/25 03:59:53;;;;;;;5.07;3.78;;;;;;;-144.47;100.00;61586.06;6183988;23;20112;-79
2022/04/25 04:02:19;;;;;;;5.57;3.75;;;;;;;-144.47;100.00;61586.06;6183856;23;20013;-77
2022/04/25 04:04:44;;;;;;;4.03;3.60;;;;;;;-144.47;100.00;61586.06;6184659;23;20084;-78
2022/04/25 04:07:10;;;;;;;5.05;4.43;;;;;;;-144.47;100.00;61586.06;6190437;23;20049;-78
2022/04/25 04:09:44;;;;;;;8.02;3.78;;;;;;;-144.47;100.00;61586.06;6158603;23;20067;-79
2022/04/25 04:12:10;;;;;;;5.55;3.95;;;;;;;-144.47;100.00;61586.06;6185111;23;20056;-79
2022/04/25 04:14:36;;;;;;;4.05;3.83;;;;;;;-144.47;100.00;61586.06;6157365;23;20326;-79
2022/04/25 04:17:07;;;;;;;5.45;3.60;;;;;;;-144.47;100.00;61586.06;6184563;23;20009;-79
2022/04/25 04:19:36;;;;;;;6.38;3.72;;;;;;;-144.47;100.00;61586.06;6184106;23;20017;-78
2022/04/25 04:22:03;;;;;;;4.63;4.22;;;;;;;-144.47;100.00;61586.06;6187049;23;20009;-78
2022/04/25 04:24:31;;;;;;;4.25;3.85;;;;;;;-144.47;100.00;61586.06;6186818;23;20338;-79
2022/04/25 04:26:57;;;;;;;4.97;3.92;;;;;;;-144.47;100.00;61586.06;6184748;23;20565;-79
2022/04/25 04:29:23;;;;;;;5.07;3.88;;;;;;;-144.47;100.00;61586.06;6184497;23;20095;-79
2022/04/25 04:31:49;;;;;;;5.70;4.20;;;;;;;-144.47;100.00;61586.06;6183457;23;20088;-79
2022/04/25 04:34:14;;;;;;;5.50;4.03;;;;;;;-144.47;100.00;61586.06;6182326;23;20013;-80
2022/04/25 04:36:40;;;;;;;5.82;3.97;;;;;;;-144.47;100.00;61586.06;6182888;23;20390;-79
2022/04/25 04:39:05;;;;;;;4.65;4.10;;;;;;;-144.47;100.00;61586.06;6182424;23;20032;-80
2022/04/25 04:41:31;;;;;;;5.93;3.80;;;;;;;-144.47;100.00;61586.06;6155379;23;20013;-80
2022/04/25 04:43:59;;;;;;;4.60;3.70;;;;;;;-144.47;100.00;61586.06;6182065;23;20016;-80
2022/04/25 04:46:25;;;;;;;4.80;3.40;;;;;;;-144.47;100.00;61586.06;6182857;23;20005;-80
2022/04/25 04:48:50;;;;;;;4.60;3.72;;;;;;;-144.47;100.00;61586.06;6182230;23;20069;-78
2022/04/25 04:51:16;;;;;;;4.90;3.58;;;;;;;-144.47;100.00;61586.06;6184947;23;20031;-80
2022/04/25 04:53:42;;;;;;;3.95;3.55;;;;;;;-144.47;100.00;61586.06;6186133;23;20013;-80
2022/04/25 04:56:08;;;;;;;5.25;3.47;;;;;;;-144.47;100.00;61586.06;6161974;23;20450;-80
2022/04/25 04:58:33;;;;;;;3.92;3.60;;;;;;;-144.47;100.00;61586.06;6184362;23;20091;-80
2022/04/25 05:00:59;;;;;;;3.63;3.40;;;;;;;-144.47;100.00;61586.06;6184225;23;20095;-80
2022/04/25 05:03:25;;;;;;;3.83;3.33;;;;;;;-144.47;100.00;61586.06;6184833;23;20075;-79
2022/04/25 05:05:52;;;;;;;3.85;3.50;;;;;;;-144.47;100.00;61586.06;6185413;23;20013;-79
2022/04/25 05:08:18;;;;;;;3.63;3.33;;;;;;;-144.47;100.00;61586.06;6183727;23;20025;-80
2022/04/25 05:10:43;;;;;;;4.00;3.60;;;;;;;-144.47;100.00;61586.06;6185423;23;20338;-78
2022/04/25 05:13:09;;;;;;;3.88;3.45;;;;;;;-144.47;100.00;61586.06;6184424;23;20043;-80
2022/04/25 05:15:36;;;;;;;6.38;3.63;;;;;;;-144.47;100.00;61586.06;6182629;23;20009;-79
2022/04/25 05:18:01;;;;;;;7.57;3.63;;;;;;;-144.47;100.00;61586.06;6182244;23;20460;-79
2022/04/25 05:20:27;;;;;;;3.78;3.58;;;;;;;-144.47;100.00;61586.06;6182293;23;20025;-79
2022/04/25 05:22:52;;;;;;;4.97;4.00;;;;;;;-144.47;100.00;61586.06;6181864;23;20029;-79
2022/04/25 05:25:20;;;;;;;4.10;3.70;;;;;;;-144.47;100.00;61586.06;6182711;23;20342;-79
2022/04/25 05:27:48;;;;;;;4.32;3.92;;;;;;;-144.47;100.00;61586.06;6155638;23;20296;-79
2022/04/25 05:30:15;;;;;;;4.15;3.78;;;;;;;-144.47;100.00;61586.06;6181983;23;20071;-80
2022/04/25 05:32:46;;;;;;;5.32;3.58;;;;;;;-144.47;100.00;61586.06;6181823;23;20013;-80
2022/04/25 05:35:17;;;;;;;4.38;3.97;;;;;;;-144.47;100.00;61586.06;6155154;23;20508;-80
2022/04/25 05:37:43;;;;;;;4.40;4.00;;;;;;;-144.47;100.00;61586.06;6181825;23;20040;-78
2022/04/25 05:40:11;;;;;;;4.07;3.50;;;;;;;-144.47;100.00;61586.06;6131330;23;20375;-80
2022/04/25 05:42:38;;;;;;;4.10;3.72;;;;;;;-144.47;100.00;61586.06;6182069;23;20120;-79
2022/04/25 05:45:04;;;;;;;3.83;3.45;;;;;;;-144.47;100.00;61586.06;6156120;23;20008;-80
2022/04/25 05:47:31;;;;;;;5.03;3.70;;;;;;;-144.47;100.00;61586.06;6182429;23;20346;-79
2022/04/25 05:52:40;;;;;;;5.90;4.07;;;;;;;-144.47;100.00;61586.06;6185160;23;20012;-79
2022/04/25 05:55:06;;;;;;;4.57;4.18;;;;;;;-144.47;100.00;61586.06;6190764;23;20024;-79
2022/04/25 05:57:32;;;;;;;4.32;3.92;;;;;;;-144.47;100.00;61586.06;6191185;23;20025;-79
2022/04/25 05:59:57;;;;;;;5.70;4.13;;;;;;;-144.47;100.00;61586.06;6142446;23;20100;-79
2022/04/25 06:02:23;;;;;;;4.55;3.80;;;;;;;-144.47;100.00;61586.06;6166463;23;20012;-79
2022/04/25 06:04:48;;;;;;;4.50;4.10;;;;;;;-144.47;100.00;61586.06;6182185;23;20002;-79
2022/04/25 06:07:13;;;;;;;4.30;3.95;;;;;;;-144.47;100.00;61586.06;6157525;23;20386;-80
2022/04/25 06:09:39;;;;;;;5.97;4.13;;;;;;;-144.47;100.00;61586.06;6182235;23;20088;-79
2022/04/25 06:12:05;;;;;;;3.90;3.60;;;;;;;-144.47;100.00;61586.06;6182448;23;20362;-79
2022/04/25 06:14:31;;;;;;;4.47;3.85;;;;;;;-144.47;100.00;61586.06;6181969;23;20041;-80
2022/04/25 06:16:59;;;;;;;6.82;4.43;;;;;;;-144.47;100.00;61586.06;6178626;23;20013;-73
2022/04/25 06:19:25;;;;;;;4.93;3.95;;;;;;;-144.47;100.00;61586.06;6178352;23;20052;-74
2022/04/25 06:21:51;;;;;;;4.20;3.90;;;;;;;-144.47;100.00;61586.06;6178659;23;20009;-76
2022/04/25 06:24:17;;;;;;;5.65;3.88;;;;;;;-144.47;100.00;61586.06;6180589;23;20373;-75
2022/04/25 06:26:42;;;;;;;5.32;4.20;;;;;;;-144.47;100.00;61586.06;6182123;23;20067;-75
2022/04/25 06:29:08;;;;;;;5.20;4.15;;;;;;;-144.47;100.00;61586.06;6183994;23;20449;-73
2022/04/25 06:31:35;;;;;;;4.50;3.80;;;;;;;-144.47;100.00;61586.06;6182604;23;20422;-75
2022/04/25 06:34:00;;;;;;;4.78;3.67;;;;;;;-144.47;100.00;61586.06;6183776;23;20073;-75
2022/04/25 06:36:26;;;;;;;7.35;3.53;;;;;;;-144.47;100.00;61586.06;6184125;23;20021;-75
2022/04/25 06:38:52;;;;;;;4.18;3.78;;;;;;;-144.47;100.00;61586.06;6183068;23;20100;-75
2022/04/25 06:41:18;;;;;;;4.35;3.70;;;;;;;-144.47;100.00;61586.06;6183838;23;20009;-75
2022/04/25 06:43:43;;;;;;;5.22;4.07;;;;;;;-144.47;100.00;61586.06;6183969;23;20028;-75
2022/04/25 06:46:09;;;;;;;8.20;4.40;;;;;;;-144.47;100.00;61586.06;6183738;23;20473;-75
2022/04/25 06:48:34;;;;;;;7.20;4.50;;;;;;;-144.47;100.00;61586.06;6183280;23;20044;-75
2022/04/25 06:51:01;;;;;;;4.90;4.50;;;;;;;-144.47;100.00;61586.06;6184868;23;20016;-74
2022/04/25 06:53:26;;;;;;;7.25;4.63;;;;;;;-144.47;100.00;61586.06;6188904;23;20011;-73
2022/04/25 06:55:52;;;;;;;6.38;4.45;;;;;;;-144.47;100.00;61586.06;6190093;23;20092;-73
2022/04/25 06:58:18;;;;;;;4.35;4.05;;;;;;;-144.47;100.00;61586.06;6184469;23;20053;-74
2022/04/25 07:00:44;;;;;;;6.10;4.18;;;;;;;-144.47;100.00;61586.06;6183348;23;20009;-74
2022/04/25 07:03:09;;;;;;;4.53;4.13;;;;;;;-144.47;100.00;61586.06;6183861;23;20450;-74
2022/04/25 07:05:35;;;;;;;4.65;4.25;;;;;;;-144.47;100.00;61586.06;6183006;23;20096;-72
2022/04/25 07:08:01;;;;;;;4.18;3.88;;;;;;;-144.47;100.00;61586.06;6180679;23;20331;-78
2022/04/25 07:10:26;;;;;;;4.50;4.10;;;;;;;-144.47;100.00;61586.06;6182836;23;20017;-73
2022/04/25 07:12:52;;;;;;;5.22;4.32;;;;;;;-144.47;100.00;61586.06;6183507;23;20111;-74
2022/04/25 07:15:19;;;;;;;4.97;4.20;;;;;;;-144.47;100.00;61586.06;6184169;23;20034;-76
2022/04/25 07:17:45;;;;;;;4.50;4.10;;;;;;;-144.47;100.00;61586.06;6183275;23;20391;-77
2022/04/25 07:20:11;;;;;;;7.05;4.63;;;;;;;-144.47;100.00;61586.06;6183581;23;20020;-77
2022/04/25 07:30:48;;;;;;;6.45;4.28;;;;;;;-144.47;100.00;61586.06;6183112;23;20013;-76
2022/04/25 07:33:14;;;;;;;3.92;3.60;;;;;;;-144.47;100.00;61586.06;6183264;23;20059;-77
2022/04/25 07:35:39;;;;;;;3.67;3.35;;;;;;;-144.47;100.00;61586.06;6183505;23;20009;-76
2022/04/25 07:38:06;;;;;;;4.07;3.72;;;;;;;-144.47;100.00;61586.06;6182554;23;20220;-77
2022/04/25 07:40:31;;;;;;;5.32;3.92;;;;;;;-144.47;100.00;61586.06;6183491;23;20035;-77
2022/04/25 07:42:57;;;;;;;3.58;3.28;;;;;;;-144.47;100.00;61586.06;6183750;23;20020;-75
2022/04/25 07:45:23;;;;;;;4.57;2.92;;;;;;;-144.47;100.00;61586.06;6183524;23;20001;-73
2022/04/25 07:47:48;;;;;;;3.40;3.08;;;;;;;-144.47;100.00;61586.06;6183429;23;20484;-74
2022/04/25 07:50:16;;;;;;;3.67;3.17;;;;;;;-144.47;100.00;61586.06;6157951;23;20013;-73
2022/04/25 07:52:41;;;;;;;3.13;2.70;;;;;;;-144.47;100.00;61586.06;6182536;23;20426;-74
2022/04/25 07:55:08;;;;;;;3.60;2.30;;;;;;;-144.47;100.00;61586.06;6183595;23;20020;-76
2022/04/25 07:57:34;;;;;;;2.72;2.42;;;;;;;-144.47;100.00;61586.06;6182415;23;20016;-74
2022/04/25 08:00:02;;;;;;;5.65;2.90;;;;;;;-144.47;100.00;61586.06;6157262;23;20100;-76
2022/04/25 08:02:32;;;;;;;3.38;3.05;;;;;;;-144.47;100.00;61586.06;6182932;23;20395;-76
2022/04/25 08:04:58;;;;;;;2.60;2.40;;;;;;;-144.47;100.00;61586.06;6183304;23;20050;-76
2022/04/25 08:07:24;;;;;;;3.03;2.70;;;;;;;-144.47;100.00;61586.06;6182868;23;20025;-77
2022/04/25 08:09:49;;;;;;;3.60;2.60;;;;;;;-144.47;100.00;61586.06;6156034;23;20005;-77
2022/04/25 08:18:01;;;;;;;2.33;2.13;;;;;;;-144.47;100.00;61586.06;6183229;23;20098;-76
2022/04/25 08:20:29;;;;;;;4.22;2.17;;;;;;;-144.47;100.00;61586.06;6183373;23;20296;-76
2022/04/25 08:22:58;;;;;;;2.78;1.83;;;;;;;-144.47;100.00;61586.06;6182362;23;20009;-75
2022/04/25 08:25:32;;;;;;;4.85;3.03;;;;;;;-144.47;100.00;61586.06;6182468;23;20013;-76
2022/04/25 08:28:00;;;;;;;3.58;2.05;;;;;;;-144.47;100.00;61586.06;6155612;23;20013;-77
2022/04/25 08:30:26;;;;;;;3.28;2.53;;;;;;;-144.47;100.00;61586.06;6182514;23;20001;-77
2022/04/25 08:32:54;;;;;;;3.35;2.17;;;;;;;-144.47;100.00;61586.06;6182469;23;20040;-76
2022/04/25 08:35:21;;;;;;;2.85;2.15;;;;;;;-144.47;100.00;61586.06;6156396;23;20016;-78
2022/04/25 08:37:46;;;;;;;3.25;2.20;;;;;;;-144.47;100.00;61586.06;6181605;23;20108;-76
2022/04/25 08:40:12;;;;;;;3.67;2.60;;;;;;;-144.47;100.00;61586.06;6181108;23;20013;-73
2022/04/25 08:42:37;;;;;;;3.20;2.90;;;;;;;-144.47;100.00;61586.06;6180917;23;20092;-74
2022/04/25 08:45:07;;;;;;;3.58;2.65;;;;;;;-144.47;100.00;61586.06;6155716;23;20005;-73
2022/04/25 08:47:36;;;;;;;5.90;3.20;;;;;;;-144.47;100.00;61586.06;6181699;23;20071;-75
2022/04/25 08:50:02;;;;;;;5.40;3.28;;;;;;;-144.47;100.00;61586.06;6181641;23;20155;-74
2022/04/25 08:52:29;;;;;;;3.65;2.45;;;;;;;-144.47;100.00;61586.06;6181551;23;20401;-75
2022/04/25 08:54:58;;;;;;;6.63;2.88;;;;;;;-144.47;100.00;61586.06;6181215;23;20023;-74
2022/04/25 08:57:27;;;;;;;3.50;2.90;;;;;;;-144.47;100.00;61586.06;6154374;23;20024;-74
2022/04/25 08:59:55;;;;;;;3.63;2.88;;;;;;;-144.47;100.00;61586.06;6181161;23;20021;-75
2022/04/25 09:02:22;;;;;;;7.07;3.50;;;;;;;-144.47;100.00;61586.06;6181100;23;20088;-74
2022/04/25 09:04:50;;;;;;;3.25;2.70;;;;;;;-144.47;100.00;61586.06;6181030;23;20310;-75
2022/04/25 09:07:18;;;;;;;3.25;2.50;;;;;;;-144.47;100.00;61586.06;6181077;23;20009;-75
2022/04/25 09:09:44;;;;;;;3.45;2.80;;;;;;;-144.47;100.00;61586.06;6181431;23;20096;-75
2022/04/25 09:12:14;;;;;;;2.60;2.40;;;;;;;-144.47;100.00;61586.06;6180509;23;20096;-74
2022/04/25 09:14:42;;;;;;;3.65;2.50;;;;;;;-144.47;100.00;61586.06;6180568;23;20088;-75
2022/04/25 09:17:08;;;;;;;3.55;2.30;;;;;;;-144.47;100.00;61586.06;6180942;23;20407;-73
2022/04/25 09:19:36;;;;;;;2.92;2.10;;;;;;;-144.47;100.00;61586.06;6180418;23;20020;-75
2022/04/25 09:22:02;;;;;;;4.30;2.33;;;;;;;-144.47;100.00;61586.06;6181530;23;20005;-73
2022/04/25 09:24:32;;;;;;;3.05;1.83;;;;;;;-144.47;100.00;61586.06;6181503;23;20038;-73
2022/04/25 09:27:07;;;;;;;3.33;1.80;;;;;;;-144.47;100.00;61586.06;6180464;23;20013;-74
2022/04/25 09:29:33;;;;;;;2.80;1.80;;;;;;;-144.47;100.00;61586.06;6180587;23;20009;-74
2022/04/25 09:31:59;;;;;;;2.15;1.50;;;;;;;-144.47;100.00;61586.06;6180821;23;20465;-74
2022/04/25 09:37:09;;;;;;;2.42;1.50;;;;;;;-144.47;100.00;61586.06;6181898;23;20416;-74
2022/04/25 09:39:34;;;;;;;4.05;2.10;;;;;;;-144.47;100.00;61586.06;6181651;23;20012;-73
2022/04/25 09:42:00;;;;;;;2.72;1.55;;;;;;;-144.47;100.00;61586.06;6181713;23;20017;-74
2022/04/25 09:44:28;;;;;;;2.03;1.52;;;;;;;-144.47;100.00;61586.06;6180769;23;20009;-73
2022/04/25 09:46:54;;;;;;;2.13;1.70;;;;;;;-144.47;100.00;61586.06;6180611;23;20052;-74
2022/04/25 09:49:20;;;;;;;1.98;1.73;;;;;;;-144.47;100.00;61586.06;6180580;23;20120;-74
2022/04/25 09:51:59;;;;;;;2.78;1.90;;;;;;;-144.47;100.00;61586.06;6181566;23;20013;-74
2022/04/25 09:54:25;;;;;;;4.45;2.30;;;;;;;-144.47;100.00;61586.06;6181546;23;20013;-74
2022/04/25 09:56:51;;;;;;;2.92;1.88;;;;;;;-144.47;100.00;61586.06;6180297;23;20167;-75
2022/04/25 09:59:18;;;;;;;3.97;1.70;;;;;;;-144.47;100.00;61586.06;6180180;23;20013;-75
2022/04/25 10:01:45;;;;;;;3.42;1.92;;;;;;;-144.47;100.00;61586.06;6182433;23;20009;-74
2022/04/25 10:04:34;;;;;;;4.00;2.28;;;;;;;-144.47;100.00;61586.06;6183855;23;20497;-74
2022/04/25 10:07:01;;;;;;;3.67;1.80;;;;;;;-144.47;100.00;61586.06;6184211;23;20008;-75
2022/04/25 10:09:31;;;;;;;5.38;2.10;;;;;;;-144.47;100.00;61586.06;6183636;23;20032;-76
2022/04/25 10:12:01;;;;;;;3.13;2.13;;;;;;;-144.47;100.00;61586.06;6183282;23;20342;-74
2022/04/25 10:14:28;;;;;;;3.13;2.25;;;;;;;-144.47;100.00;61586.06;6183408;23;20009;-78
2022/04/25 10:16:59;;;;;;;4.10;2.13;;;;;;;-144.47;100.00;61586.06;6183118;23;20040;-77
2022/04/25 10:19:26;;;;;;;5.07;2.30;;;;;;;-144.47;100.00;61586.06;6183778;23;20458;-76
2022/04/25 10:21:52;;;;;;;2.47;2.13;;;;;;;-144.47;100.00;61586.06;6183440;23;20051;-77
2022/04/25 10:24:19;;;;;;;3.50;1.95;;;;;;;-144.47;100.00;61586.06;6183888;23;20096;-77
2022/04/25 10:26:46;;;;;;;3.83;2.00;;;;;;;-144.47;100.00;61586.06;6182905;23;20430;-75
2022/04/25 10:29:17;;;;;;;3.10;1.50;;;;;;;-144.47;100.00;61586.06;6182663;23;20013;-77
2022/04/25 10:31:45;;;;;;;4.95;2.25;;;;;;;-144.47;100.00;61586.06;6182018;23;20767;-77
2022/04/25 10:34:14;;;;;;;2.92;1.90;;;;;;;-144.47;100.00;61586.06;6182861;23;20101;-77
2022/04/25 10:36:39;;;;;;;2.42;1.73;;;;;;;-144.47;100.00;61586.06;6182736;23;20059;-78
2022/04/25 10:39:17;;;;;;;4.07;1.90;;;;;;;-144.47;100.00;61586.06;6182977;23;20021;-74
2022/04/25 10:44:42;;;;;;;2.45;1.80;;;;;;;-144.47;100.00;61586.06;6182578;23;20391;-76
2022/04/25 10:47:12;;;;;;;2.90;1.90;;;;;;;-144.47;100.00;61586.06;6186679;23;20009;-76
2022/04/25 10:49:53;;;;;;;2.63;1.83;;;;;;;-144.47;100.00;61586.06;6184892;23;20446;-77
2022/04/25 10:52:33;;;;;;;2.10;1.67;;;;;;;-144.47;100.00;61586.06;6183176;23;20043;-76
2022/04/25 10:55:36;;;;;;;4.95;2.33;;;;;;;-144.47;100.00;61586.06;6182831;23;20382;-76
2022/04/25 10:58:02;;;;;;;5.22;1.92;;;;;;;-144.47;100.00;61586.06;6155949;23;20016;-75
2022/04/25 11:00:36;;;;;;;2.45;1.60;;;;;;;-144.47;100.00;61586.06;6182781;23;20422;-75
2022/04/25 11:03:19;;;;;;;3.67;2.33;;;;;;;-144.47;100.00;61586.06;6182736;23;20478;-77
2022/04/25 11:05:45;;;;;;;3.60;1.80;;;;;;;-144.47;100.00;61586.06;6182162;23;20036;-75
2022/04/25 11:08:20;;;;;;;3.42;2.10;;;;;;;-144.47;100.00;61586.06;6182668;23;20013;-75
2022/04/25 11:11:06;;;;;;;3.60;2.03;;;;;;;-144.47;100.00;61586.06;6182312;23;20013;-77
2022/04/25 11:13:56;;;;;;;2.35;1.60;;;;;;;-144.47;100.00;61586.06;6182112;23;20009;-75
2022/04/25 11:16:26;;;;;;;5.05;1.77;;;;;;;-144.47;100.00;61586.06;6182794;23;20449;-77
2022/04/25 11:19:11;;;;;;;5.53;2.00;;;;;;;-144.47;100.00;61586.06;6182137;23;20009;-77
2022/04/25 11:21:46;;;;;;;2.63;1.90;;;;;;;-144.47;100.00;61586.06;6182103;23;20013;-77
2022/04/25 11:24:33;;;;;;;3.40;1.60;;;;;;;-144.47;100.00;61586.06;6182647;23;20016;-77
2022/04/25 11:27:01;;;;;;;2.40;2.00;;;;;;;-144.47;100.00;61586.06;6182332;23;20013;-77
2022/04/25 11:29:27;;;;;;;2.85;1.60;;;;;;;-144.47;100.00;61586.06;6183045;23;20445;-77
2022/04/25 11:32:23;;;;;;;3.28;1.77;;;;;;;-144.47;100.00;61586.06;6182361;23;20067;-77
2022/04/25 11:34:49;;;;;;;2.83;1.85;;;;;;;-144.47;100.00;61586.06;6184425;23;20433;-77
2022/04/25 11:37:14;;;;;;;2.53;1.63;;;;;;;-144.47;100.00;61586.06;6160461;23;20028;-77
2022/04/25 11:39:52;;;;;;;2.90;1.67;;;;;;;-144.47;100.00;61586.06;6182151;23;20386;-77